Time;durP1;ratioP1;P1;durP2;ratioP2;P2;SDS_P1;SDS_P2;PMS_P1;PMS_P2;Temp;Humidity;BMP_temperature;BMP_pressure;BME280_temperature;BME280_humidity;BME280_pressure;Samples;Min_cycle;Max_cycle;Signal;HPM_P1;HPM_P2
2022/02/08 00:01:59;;;;;;;8.67;2.93;;;6.70;99.90;;;;;;5085874;28;20475;-79
2022/02/08 00:04:26;;;;;;;6.90;2.43;;;6.70;99.90;;;;;;5082689;28;20481;-81
2022/02/08 00:06:54;;;;;;;7.37;3.70;;;6.70;99.90;;;;;;5083865;28;20489;-80
2022/02/08 00:09:24;;;;;;;7.00;2.00;;;6.60;99.90;;;;;;5085467;28;20464;-79
2022/02/08 00:11:51;;;;;;;8.87;3.03;;;6.60;99.90;;;;;;5085065;28;20473;-79
2022/02/08 00:14:18;;;;;;;11.73;2.83;;;6.60;99.90;;;;;;5083665;28;20474;-78
2022/02/08 00:16:44;;;;;;;13.43;3.93;;;6.60;99.90;;;;;;5084290;28;20483;-79
2022/02/08 00:19:11;;;;;;;7.40;2.67;;;6.70;99.90;;;;;;5083918;28;21018;-81
2022/02/08 00:21:38;;;;;;;13.93;2.63;;;6.70;99.90;;;;;;5084539;28;20987;-80
2022/02/08 00:24:05;;;;;;;7.83;2.27;;;6.70;99.90;;;;;;5081213;28;20498;-79
2022/02/08 00:26:33;;;;;;;12.80;3.33;;;6.70;99.90;;;;;;5081530;28;20487;-81
2022/02/08 00:29:00;;;;;;;10.73;2.73;;;6.70;99.90;;;;;;5081274;28;20450;-79
2022/02/08 00:31:27;;;;;;;12.33;5.77;;;6.60;99.90;;;;;;5081644;28;20829;-78
2022/02/08 00:33:54;;;;;;;21.20;2.90;;;6.70;99.90;;;;;;5076621;28;20469;-79
2022/02/08 00:36:22;;;;;;;9.37;2.50;;;6.70;99.90;;;;;;5081720;28;20489;-83
2022/02/08 00:38:49;;;;;;;13.13;3.27;;;6.70;99.90;;;;;;5081998;28;20463;-79
2022/02/08 00:41:16;;;;;;;8.63;2.50;;;6.70;99.90;;;;;;5081663;28;20453;-80
2022/02/08 00:43:51;;;;;;;9.70;2.83;;;6.70;99.90;;;;;;5081357;28;20478;-80
2022/02/08 00:46:24;;;;;;;11.17;2.93;;;6.70;99.90;;;;;;5083509;28;20502;-82
2022/02/08 00:48:57;;;;;;;14.50;3.30;;;6.70;99.90;;;;;;5079307;28;20455;-81
2022/02/08 00:51:26;;;;;;;5.67;2.73;;;6.70;99.90;;;;;;5081723;28;20450;-79
2022/02/08 00:53:53;;;;;;;11.10;3.83;;;6.70;99.90;;;;;;5081218;28;20450;-80
2022/02/08 00:56:20;;;;;;;15.40;3.57;;;6.70;99.90;;;;;;5081529;28;20465;-80
2022/02/08 00:58:49;;;;;;;7.43;2.60;;;6.70;99.90;;;;;;5081990;28;20454;-81
2022/02/08 01:01:15;;;;;;;8.37;2.40;;;6.80;99.90;;;;;;5081150;28;20655;-79
2022/02/08 01:03:43;;;;;;;10.87;3.70;;;6.70;99.90;;;;;;5079740;28;20833;-81
2022/02/08 01:06:10;;;;;;;11.20;3.50;;;6.70;99.90;;;;;;5080363;28;20461;-79
2022/02/08 01:08:40;;;;;;;14.00;2.47;;;6.70;99.90;;;;;;5081654;28;21037;-80
2022/02/08 01:11:10;;;;;;;12.87;2.63;;;6.70;99.90;;;;;;5081637;28;20555;-77
2022/02/08 01:13:37;;;;;;;11.17;2.97;;;6.70;99.90;;;;;;5080714;28;20475;-80
2022/02/08 01:16:07;;;;;;;17.00;3.50;;;6.70;99.90;;;;;;5081092;28;20517;-81
2022/02/08 01:18:38;;;;;;;13.60;3.40;;;6.80;99.90;;;;;;5081430;28;20505;-79
2022/02/08 01:21:05;;;;;;;12.57;3.57;;;6.80;99.90;;;;;;5081077;28;20457;-79
2022/02/08 01:23:33;;;;;;;11.97;3.03;;;6.80;99.90;;;;;;5079235;28;20501;-78
2022/02/08 01:26:07;;;;;;;13.83;4.30;;;6.80;99.90;;;;;;5080087;28;20833;-80
2022/02/08 01:28:41;;;;;;;14.63;3.00;;;6.90;99.90;;;;;;5081816;28;20465;-81
2022/02/08 01:31:13;;;;;;;12.00;3.40;;;6.80;99.90;;;;;;5082505;28;20458;-79
2022/02/08 01:36:43;;;;;;;16.03;4.40;;;6.90;99.90;;;;;;5070493;28;20456;-81
2022/02/08 01:39:20;;;;;;;16.40;3.63;;;6.90;99.90;;;;;;5085813;28;20500;-79
2022/02/08 01:44:38;;;;;;;18.70;5.07;;;6.70;99.90;;;;;;5069937;28;20459;-79
2022/02/08 01:47:21;;;;;;;12.07;3.97;;;6.80;99.90;;;;;;5084138;28;20470;-81
2022/02/08 01:49:59;;;;;;;9.17;4.00;;;6.70;99.90;;;;;;5085948;28;20464;-78
2022/02/08 01:52:26;;;;;;;16.33;5.20;;;6.60;99.90;;;;;;5086316;28;20446;-79
2022/02/08 01:54:53;;;;;;;12.33;4.60;;;6.50;99.90;;;;;;5085149;28;21021;-79
2022/02/08 01:57:20;;;;;;;12.97;4.00;;;6.50;99.90;;;;;;5085817;28;20446;-79
2022/02/08 01:59:47;;;;;;;20.00;5.27;;;6.30;99.90;;;;;;5084571;28;20450;-80
2022/02/08 02:02:15;;;;;;;18.70;5.33;;;6.30;99.90;;;;;;5085346;28;20452;-80
2022/02/08 02:04:42;;;;;;;14.97;5.60;;;6.30;99.90;;;;;;5086036;28;20503;-81
2022/02/08 02:07:09;;;;;;;13.07;4.63;;;6.20;99.90;;;;;;5085803;28;20817;-80
2022/02/08 02:09:38;;;;;;;18.97;4.40;;;6.30;99.90;;;;;;5087051;28;20457;-79
2022/02/08 02:12:07;;;;;;;18.87;5.03;;;6.30;99.90;;;;;;5088591;28;20462;-82
2022/02/08 02:14:37;;;;;;;11.10;4.70;;;6.30;99.90;;;;;;5087018;28;20480;-79
2022/02/08 02:17:05;;;;;;;13.10;5.30;;;6.20;99.90;;;;;;5087675;28;20458;-81
2022/02/08 02:19:33;;;;;;;13.50;4.90;;;6.10;99.90;;;;;;5086215;28;20470;-80
2022/02/08 02:22:01;;;;;;;17.67;6.40;;;6.10;99.90;;;;;;5078361;28;20455;-80
2022/02/08 02:24:29;;;;;;;16.30;4.53;;;6.10;99.90;;;;;;5077026;28;20495;-80
2022/02/08 02:26:58;;;;;;;14.70;4.47;;;6.10;99.90;;;;;;5077888;28;20458;-80
2022/02/08 02:29:26;;;;;;;10.90;4.87;;;6.20;99.90;;;;;;5078041;28;20479;-80
2022/02/08 02:31:54;;;;;;;14.33;5.30;;;6.20;99.90;;;;;;5077702;28;20589;-80
2022/02/08 02:34:22;;;;;;;12.03;5.07;;;6.30;99.90;;;;;;5078019;28;20477;-80
2022/02/08 02:36:49;;;;;;;14.93;4.40;;;6.30;99.90;;;;;;5078402;28;20565;-80
2022/02/08 02:39:21;;;;;;;12.30;4.53;;;6.30;99.90;;;;;;5078505;28;20540;-80
2022/02/08 02:41:49;;;;;;;11.50;5.07;;;6.30;99.90;;;;;;5077989;28;20444;-81
2022/02/08 02:44:18;;;;;;;13.07;5.47;;;6.20;99.90;;;;;;5076708;28;20576;-80
2022/02/08 02:46:46;;;;;;;14.03;4.47;;;6.20;99.90;;;;;;5076755;28;20462;-80
2022/02/08 02:49:13;;;;;;;9.33;4.67;;;6.30;99.90;;;;;;5077427;28;20947;-80
2022/02/08 02:51:40;;;;;;;15.87;5.70;;;6.30;99.90;;;;;;5077368;28;20480;-80
2022/02/08 02:54:14;;;;;;;12.00;5.73;;;6.30;99.90;;;;;;5076719;28;20501;-80
2022/02/08 02:56:41;;;;;;;12.80;5.47;;;6.20;99.90;;;;;;5077390;28;20448;-79
2022/02/08 02:59:09;;;;;;;11.00;6.20;;;6.30;99.90;;;;;;5077420;28;20461;-80
2022/02/08 03:01:44;;;;;;;8.80;5.67;;;6.30;99.90;;;;;;5078573;28;20506;-80
2022/02/08 03:04:27;;;;;;;16.80;5.97;;;6.20;99.90;;;;;;5077392;28;20497;-80
2022/02/08 03:18:22;;;;;;;9.57;5.23;;;6.30;99.90;;;;;;5057672;28;20442;-80
2022/02/08 03:20:46;;;;;;;11.60;5.10;;;6.30;99.90;;;;;;5061756;28;20495;-80
2022/02/08 03:23:14;;;;;;;9.00;4.40;;;6.30;99.90;;;;;;5076220;28;20484;-80
2022/02/08 03:25:41;;;;;;;14.70;5.50;;;6.20;99.90;;;;;;5076435;28;20485;-81
2022/02/08 03:28:08;;;;;;;10.20;5.70;;;6.20;99.90;;;;;;5077390;28;20453;-80
2022/02/08 03:30:36;;;;;;;12.27;6.00;;;6.20;99.90;;;;;;5076758;28;20446;-79
2022/02/08 03:33:04;;;;;;;10.93;5.07;;;6.30;99.90;;;;;;5075132;28;20965;-79
2022/02/08 03:35:31;;;;;;;8.53;5.97;;;6.30;99.90;;;;;;5076601;28;20475;-79
2022/02/08 03:38:01;;;;;;;6.90;5.70;;;6.20;99.90;;;;;;5076168;28;20441;-79
2022/02/08 03:40:38;;;;;;;14.77;6.10;;;6.30;99.90;;;;;;5075443;28;20454;-79
2022/02/08 03:43:27;;;;;;;7.17;5.00;;;6.30;99.90;;;;;;5075608;28;20480;-80
2022/02/08 03:45:58;;;;;;;9.77;5.80;;;6.30;99.90;;;;;;5076200;28;20508;-80
2022/02/08 03:48:28;;;;;;;7.80;5.47;;;6.30;99.90;;;;;;5076186;28;20454;-79
2022/02/08 03:51:01;;;;;;;10.93;6.50;;;6.30;99.90;;;;;;5075445;28;20970;-79
2022/02/08 03:53:28;;;;;;;8.93;6.00;;;6.40;99.90;;;;;;5075135;28;20458;-80
2022/02/08 03:55:55;;;;;;;10.40;6.40;;;6.40;99.90;;;;;;5075479;28;20486;-79
2022/02/08 03:58:22;;;;;;;7.50;6.17;;;6.30;99.90;;;;;;5074828;28;20452;-79
2022/02/08 04:01:21;;;;;;;11.53;6.10;;;6.40;99.90;;;;;;5075686;28;20544;-79
2022/02/08 04:03:50;;;;;;;7.70;5.43;;;6.40;99.90;;;;;;5074809;28;20479;-80
2022/02/08 04:06:17;;;;;;;10.57;7.70;;;6.50;99.90;;;;;;5075613;28;20457;-80
2022/02/08 04:08:44;;;;;;;8.30;7.33;;;6.40;99.90;;;;;;5075911;28;20486;-80
2022/02/08 04:11:10;;;;;;;12.17;7.70;;;6.40;99.90;;;;;;5075395;28;20454;-80
2022/02/08 04:13:46;;;;;;;10.20;6.90;;;6.40;99.90;;;;;;5074521;28;20537;-79
2022/02/08 04:16:24;;;;;;;13.53;7.80;;;6.40;99.90;;;;;;5081083;28;20448;-79
2022/02/08 04:19:00;;;;;;;10.30;6.77;;;6.50;99.90;;;;;;5091574;28;20453;-79
2022/02/08 04:32:39;;;;;;;15.10;10.53;;;6.60;99.90;;;;;;5074715;28;20433;-80
2022/02/08 04:35:34;;;;;;;13.73;10.30;;;6.60;99.90;;;;;;5074672;28;20487;-80
2022/02/08 04:38:12;;;;;;;14.47;10.00;;;6.60;99.90;;;;;;5074591;28;20445;-79
2022/02/08 04:40:52;;;;;;;15.60;10.30;;;6.70;99.90;;;;;;5075168;28;20457;-79
2022/02/08 04:46:06;;;;;;;14.07;9.00;;;6.80;99.90;;;;;;5079009;28;20829;-81
2022/02/08 04:48:46;;;;;;;14.30;11.27;;;6.90;99.90;;;;;;5082846;28;20477;-81
2022/02/08 04:51:20;;;;;;;12.00;9.57;;;6.90;99.90;;;;;;5084820;28;20470;-82
2022/02/08 04:53:50;;;;;;;3.70;2.47;;;6.90;99.90;;;;;;5086508;28;20972;-82
2022/02/08 04:56:25;;;;;;;12.87;8.17;;;7.60;99.90;;;;;;5088059;28;20450;-83
2022/02/08 04:59:00;;;;;;;12.30;7.70;;;7.60;99.90;;;;;;5082361;28;20446;-83
2022/02/08 05:01:38;;;;;;;13.87;8.80;;;7.70;99.90;;;;;;5082705;28;20482;-83
2022/02/08 05:29:44;;;;;;;16.33;12.10;;;7.40;99.90;;;;;;5087432;28;20491;-83
2022/02/08 05:35:15;;;;;;;18.43;11.97;;;7.50;99.90;;;;;;5085901;28;20458;-83
2022/02/08 05:40:39;;;;;;;15.03;11.50;;;7.60;99.90;;;;;;5087051;28;20447;-83
2022/02/08 05:43:23;;;;;;;13.73;11.10;;;7.70;99.90;;;;;;5088295;28;20446;-83
2022/02/08 05:46:15;;;;;;;15.50;10.57;;;7.70;99.90;;;;;;5086967;28;20494;-83
2022/02/08 05:48:47;;;;;;;17.30;12.20;;;7.70;99.90;;;;;;5096028;28;20443;-83
2022/02/08 05:51:17;;;;;;;12.43;11.13;;;7.80;99.90;;;;;;5097043;28;20439;-83
2022/02/08 05:53:45;;;;;;;19.43;12.93;;;7.80;99.90;;;;;;5097033;28;20465;-83
2022/02/08 05:56:15;;;;;;;16.37;11.60;;;7.80;99.90;;;;;;5087292;28;20435;-84
2022/02/08 05:58:44;;;;;;;13.50;10.80;;;7.80;99.90;;;;;;5087274;28;20450;-84
2022/02/08 06:01:11;;;;;;;13.17;10.77;;;7.80;99.90;;;;;;5086364;28;20467;-83
2022/02/08 06:03:38;;;;;;;17.77;11.47;;;7.80;99.90;;;;;;5086053;28;20489;-84
2022/02/08 06:06:05;;;;;;;14.03;10.30;;;7.90;99.90;;;;;;5085750;28;20957;-83
2022/02/08 06:08:32;;;;;;;15.87;11.03;;;7.90;99.90;;;;;;5084513;28;20856;-83
2022/02/08 06:11:02;;;;;;;10.93;9.80;;;7.90;99.90;;;;;;5077838;28;20534;-83
2022/02/08 06:13:31;;;;;;;14.10;10.80;;;7.90;99.90;;;;;;5070917;28;20458;-83
2022/02/08 06:16:02;;;;;;;12.10;10.13;;;7.90;99.90;;;;;;5081024;28;20516;-83
2022/02/08 06:18:29;;;;;;;13.33;11.47;;;7.80;99.90;;;;;;5080298;28;20451;-82
2022/02/08 06:20:56;;;;;;;13.97;10.77;;;7.90;99.90;;;;;;5078261;28;20439;-81
2022/02/08 06:23:23;;;;;;;10.30;9.23;;;7.80;99.90;;;;;;5080073;28;20454;-83
2022/02/08 06:25:50;;;;;;;17.50;9.80;;;7.90;99.90;;;;;;5083771;28;20486;-83
2022/02/08 06:28:18;;;;;;;12.40;8.20;;;7.90;99.90;;;;;;5084583;28;20451;-83
2022/02/08 06:30:47;;;;;;;9.83;8.83;;;7.90;99.90;;;;;;5085106;28;20454;-83
2022/02/08 06:33:14;;;;;;;10.43;8.70;;;8.00;99.90;;;;;;5085682;28;20443;-81
2022/02/08 06:35:42;;;;;;;12.10;8.20;;;8.00;99.90;;;;;;5090085;28;20496;-84
2022/02/08 06:38:11;;;;;;;10.10;8.60;;;8.00;99.90;;;;;;5102922;28;20439;-80
2022/02/08 06:40:39;;;;;;;13.03;8.40;;;7.90;99.90;;;;;;5103743;28;20485;-81
2022/02/08 06:43:06;;;;;;;9.80;8.37;;;7.90;99.90;;;;;;5101591;28;20454;-81
2022/02/08 06:45:34;;;;;;;11.17;8.40;;;7.90;99.90;;;;;;5065155;28;20498;-81
2022/02/08 06:48:04;;;;;;;12.67;9.33;;;8.00;99.90;;;;;;5065422;28;20532;-82
2022/02/08 06:50:31;;;;;;;9.00;7.40;;;8.00;99.90;;;;;;5065330;28;20462;-82
2022/02/08 06:52:58;;;;;;;12.10;7.90;;;8.00;99.90;;;;;;5078346;28;20450;-81
2022/02/08 06:55:26;;;;;;;10.23;7.13;;;8.00;99.90;;;;;;5086489;28;20554;-82
2022/02/08 06:58:01;;;;;;;9.30;8.13;;;8.00;99.90;;;;;;5084962;28;20461;-82
2022/02/08 07:00:32;;;;;;;8.40;7.53;;;8.10;99.90;;;;;;5084764;28;20458;-82
2022/02/08 07:02:59;;;;;;;9.67;7.47;;;8.10;99.90;;;;;;5076886;28;21036;-82
2022/02/08 07:05:27;;;;;;;10.50;8.23;;;8.10;99.90;;;;;;5083762;28;20493;-82
2022/02/08 07:07:54;;;;;;;9.60;6.90;;;8.10;99.90;;;;;;5082945;28;20534;-84
2022/02/08 07:10:21;;;;;;;10.30;7.50;;;8.10;99.90;;;;;;5083685;28;20818;-81
2022/02/08 07:12:48;;;;;;;11.30;7.37;;;8.10;99.90;;;;;;5083890;28;20465;-82
2022/02/08 07:15:15;;;;;;;15.00;8.63;;;8.10;99.90;;;;;;5083198;28;20544;-83
2022/02/08 07:17:42;;;;;;;10.40;7.73;;;8.10;99.90;;;;;;5079474;28;20903;-83
2022/02/08 07:20:10;;;;;;;9.60;8.23;;;8.10;99.90;;;;;;5076844;28;20451;-82
2022/02/08 07:22:39;;;;;;;10.20;7.27;;;8.10;99.90;;;;;;5079825;28;20515;-82
2022/02/08 07:25:07;;;;;;;9.73;7.43;;;8.10;99.90;;;;;;5077806;28;20577;-81
2022/02/08 07:27:34;;;;;;;10.13;7.87;;;8.20;99.90;;;;;;5079293;28;20459;-82
2022/02/08 07:30:08;;;;;;;11.60;7.87;;;8.20;99.90;;;;;;5080338;28;20534;-81
2022/02/08 07:32:36;;;;;;;9.60;7.10;;;8.30;99.90;;;;;;5079159;28;20487;-82
2022/02/08 07:35:20;;;;;;;8.07;7.10;;;8.20;99.90;;;;;;5081149;28;20504;-82
2022/02/08 07:37:52;;;;;;;10.07;9.13;;;8.30;99.90;;;;;;5080722;28;20451;-81
2022/02/08 07:40:30;;;;;;;11.40;9.40;;;8.30;99.90;;;;;;5076385;28;20445;-81
2022/02/08 07:42:57;;;;;;;10.73;8.17;;;8.40;99.90;;;;;;5077939;28;20447;-81
2022/02/08 07:45:24;;;;;;;10.27;9.17;;;8.40;99.90;;;;;;5072003;28;20486;-83
2022/02/08 07:47:51;;;;;;;11.80;9.20;;;8.30;99.90;;;;;;5077907;28;20476;-81
2022/02/08 07:50:19;;;;;;;9.07;8.17;;;8.40;99.90;;;;;;5082374;28;20482;-82
2022/02/08 07:52:51;;;;;;;13.30;9.90;;;8.50;99.90;;;;;;5076331;28;20436;-84
2022/02/08 07:55:18;;;;;;;17.80;10.80;;;8.50;99.90;;;;;;5075243;28;20968;-84
2022/02/08 07:57:45;;;;;;;12.47;9.60;;;8.50;99.90;;;;;;5082120;28;20465;-82
2022/02/08 08:00:13;;;;;;;10.47;9.37;;;8.60;99.90;;;;;;5083268;28;20442;-80
2022/02/08 08:02:40;;;;;;;10.50;8.83;;;8.60;99.90;;;;;;5079628;28;20526;-82
2022/02/08 08:05:09;;;;;;;9.90;8.20;;;8.70;99.90;;;;;;5075871;28;21002;-82
2022/02/08 08:07:36;;;;;;;11.77;10.10;;;8.70;99.90;;;;;;5081075;28;20470;-82
2022/02/08 08:10:06;;;;;;;12.80;8.30;;;8.60;99.90;;;;;;5080882;28;20474;-84
2022/02/08 08:12:35;;;;;;;12.00;9.43;;;8.60;99.90;;;;;;5079088;28;20459;-83
2022/02/08 08:15:10;;;;;;;10.37;8.20;;;8.70;99.90;;;;;;5085967;28;20468;-81
2022/02/08 08:17:54;;;;;;;13.00;9.60;;;8.80;99.90;;;;;;5075979;28;20544;-81
2022/02/08 08:20:21;;;;;;;10.17;8.67;;;8.90;99.90;;;;;;5078994;28;20451;-82
2022/02/08 08:22:48;;;;;;;15.50;10.20;;;8.90;99.90;;;;;;5080998;28;20464;-82
2022/02/08 08:25:16;;;;;;;15.03;11.50;;;8.90;99.90;;;;;;5083179;28;20490;-82
2022/02/08 08:27:44;;;;;;;14.83;10.83;;;8.90;99.90;;;;;;5078370;28;20442;-81
2022/02/08 08:30:11;;;;;;;15.33;11.00;;;8.90;99.90;;;;;;5078793;28;20461;-81
2022/02/08 08:32:39;;;;;;;14.53;11.17;;;9.00;99.90;;;;;;5074707;28;20490;-83
2022/02/08 08:35:08;;;;;;;16.80;11.13;;;8.90;99.90;;;;;;5071387;28;20471;-81
2022/02/08 08:37:40;;;;;;;13.10;10.83;;;9.00;99.90;;;;;;5066073;28;20482;-80
2022/02/08 08:40:16;;;;;;;13.37;10.37;;;9.00;99.90;;;;;;5069735;28;20453;-81
2022/02/08 08:42:55;;;;;;;13.83;8.83;;;9.00;99.90;;;;;;5070692;28;20447;-81
2022/02/08 08:48:42;;;;;;;13.53;10.40;;;9.00;99.90;;;;;;5070994;28;20492;-81
2022/02/08 08:51:31;;;;;;;18.10;11.70;;;9.10;99.90;;;;;;5067210;28;20467;-82
2022/02/08 08:53:58;;;;;;;16.93;13.20;;;9.20;99.90;;;;;;5072405;28;20476;-81
2022/02/08 08:56:24;;;;;;;17.00;12.07;;;9.20;99.90;;;;;;5069674;28;20799;-82
2022/02/08 08:58:53;;;;;;;15.80;11.87;;;9.20;99.90;;;;;;5070789;28;20939;-83
2022/02/08 09:01:19;;;;;;;14.57;11.40;;;9.20;99.90;;;;;;5061049;28;20475;-81
2022/02/08 09:03:48;;;;;;;14.63;12.37;;;9.30;99.90;;;;;;5076941;28;20441;-80
2022/02/08 09:06:20;;;;;;;14.87;12.10;;;9.40;99.90;;;;;;5072255;28;20499;-80
2022/02/08 09:08:47;;;;;;;17.57;13.07;;;9.40;99.90;;;;;;5065030;28;20504;-82
2022/02/08 09:11:38;;;;;;;15.30;12.10;;;9.40;99.90;;;;;;5069076;28;20462;-81
2022/02/08 09:14:10;;;;;;;14.73;11.00;;;9.40;99.90;;;;;;5067532;28;20474;-81
2022/02/08 09:16:43;;;;;;;20.23;11.17;;;9.50;99.90;;;;;;5075016;28;20455;-84
2022/02/08 09:25:09;;;;;;;15.90;10.70;;;9.60;99.90;;;;;;5069396;28;20553;-83
2022/02/08 09:27:55;;;;;;;18.67;12.97;;;9.60;99.90;;;;;;5064819;28;20497;-82
2022/02/08 09:30:33;;;;;;;16.60;11.40;;;9.70;99.90;;;;;;5065434;28;20456;-84
2022/02/08 09:33:00;;;;;;;15.00;11.10;;;9.70;99.90;;;;;;5063321;28;21025;-81
2022/02/08 09:35:27;;;;;;;15.17;10.90;;;9.60;99.90;;;;;;5064407;28;20551;-83
2022/02/08 09:37:54;;;;;;;16.80;11.27;;;9.60;99.90;;;;;;5065103;28;20547;-83
2022/02/08 09:40:21;;;;;;;13.23;10.77;;;9.70;99.90;;;;;;5063546;28;20587;-83
2022/02/08 09:42:51;;;;;;;14.50;10.90;;;9.80;99.90;;;;;;5063356;28;20457;-83
2022/02/08 09:45:19;;;;;;;16.27;10.80;;;9.80;99.90;;;;;;5066058;28;20479;-83
2022/02/08 09:47:53;;;;;;;12.23;10.33;;;9.80;99.90;;;;;;5063589;28;20453;-82
2022/02/08 09:50:27;;;;;;;12.90;11.07;;;9.80;99.90;;;;;;5063123;28;20456;-84
2022/02/08 09:52:58;;;;;;;15.53;12.00;;;9.90;99.90;;;;;;5063814;28;20445;-82
2022/02/08 09:55:27;;;;;;;16.60;11.63;;;9.90;99.90;;;;;;5065681;28;20480;-83
2022/02/08 09:57:54;;;;;;;21.30;11.40;;;9.90;99.90;;;;;;5070483;28;20508;-82
2022/02/08 10:00:22;;;;;;;15.50;11.40;;;10.00;99.90;;;;;;5071773;28;20505;-82
2022/02/08 10:02:51;;;;;;;12.30;10.73;;;10.00;99.90;;;;;;5069700;28;20451;-82
2022/02/08 10:05:19;;;;;;;13.40;10.30;;;9.90;99.90;;;;;;5070352;28;20561;-83
2022/02/08 10:07:45;;;;;;;16.70;10.43;;;10.00;99.90;;;;;;5073449;28;20462;-83
2022/02/08 10:10:25;;;;;;;11.50;9.80;;;10.00;99.90;;;;;;5067135;28;20547;-84
2022/02/08 10:13:16;;;;;;;11.17;9.50;;;10.00;99.90;;;;;;5072417;28;20447;-83
2022/02/08 10:24:02;;;;;;;13.90;9.07;;;10.40;99.90;;;;;;5076556;28;20566;-83
2022/02/08 10:26:38;;;;;;;9.00;7.80;;;10.50;99.90;;;;;;5072719;28;20505;-83
2022/02/08 10:29:12;;;;;;;12.60;8.77;;;10.40;99.90;;;;;;5071196;28;20491;-82
2022/02/08 10:32:00;;;;;;;11.90;9.10;;;10.50;99.90;;;;;;5076901;28;20464;-83
2022/02/08 10:40:03;;;;;;;11.83;8.70;;;10.60;99.90;;;;;;5079185;28;20453;-84
2022/02/08 10:42:30;;;;;;;13.60;8.83;;;10.60;99.90;;;;;;5078691;28;20552;-82
2022/02/08 10:44:58;;;;;;;7.67;6.60;;;10.60;99.90;;;;;;5078058;28;20493;-85
2022/02/08 10:47:38;;;;;;;10.27;7.00;;;10.70;99.90;;;;;;5083387;28;20463;-84
2022/02/08 10:50:09;;;;;;;9.95;7.50;;;10.80;99.90;;;;;;5084442;28;20448;-82
2022/02/08 10:52:38;;;;;;;11.43;6.13;;;10.90;99.90;;;;;;5093506;28;20246;-83
2022/02/08 10:55:15;;;;;;;10.63;6.40;;;11.00;99.90;;;;;;5083041;28;20477;-84
2022/02/08 10:57:52;;;;;;;8.80;6.07;;;11.00;99.90;;;;;;5078839;28;20457;-83
2022/02/08 11:00:26;;;;;;;6.73;5.23;;;11.00;99.90;;;;;;5074927;28;20454;-84
2022/02/08 11:02:54;;;;;;;15.07;6.10;;;11.00;99.90;;;;;;5078586;28;20918;-83
2022/02/08 11:05:28;;;;;;;8.40;4.80;;;11.00;99.90;;;;;;5076942;28;20487;-84
2022/02/08 11:08:18;;;;;;;7.03;4.90;;;11.00;99.90;;;;;;5077263;28;20461;-82
2022/02/08 11:14:01;;;;;;;4.93;3.47;;;12.50;99.90;;;;;;5068970;28;20435;-82
2022/02/08 11:16:33;;;;;;;6.90;4.13;;;13.50;99.90;;;;;;5075337;28;20449;-85
2022/02/08 11:19:22;;;;;;;6.97;3.27;;;13.60;99.90;;;;;;5068845;28;20442;-82
2022/02/08 11:21:59;;;;;;;4.82;4.20;;;13.60;99.90;;;;;;5076965;28;20478;-81
2022/02/08 11:24:33;;;;;;;8.50;4.20;;;13.30;99.90;;;;;;5073374;28;20300;-83
2022/02/08 11:27:11;;;;;;;6.80;4.50;;;12.70;99.90;;;;;;5077828;28;20916;-83
2022/02/08 11:29:49;;;;;;;9.17;4.30;;;12.00;99.90;;;;;;5071390;28;20536;-82
2022/02/08 11:32:23;;;;;;;6.93;4.00;;;11.80;99.90;;;;;;5070946;28;21207;-84
2022/02/08 11:43:53;;;;;;;9.30;4.40;;;11.40;99.90;;;;;;5060644;28;20448;-82
2022/02/08 11:46:35;;;;;;;6.80;4.33;;;11.30;99.90;;;;;;5083221;28;20482;-85
2022/02/08 11:52:15;;;;;;;5.87;4.07;;;11.00;99.90;;;;;;5074791;28;20873;-86
2022/02/08 12:00:33;;;;;;;11.40;3.80;;;10.90;99.90;;;;;;5075288;28;20411;-85
2022/02/08 12:06:07;;;;;;;5.40;4.00;;;10.90;99.90;;;;;;5047479;28;20476;-85
2022/02/08 12:11:38;;;;;;;7.57;3.77;;;11.00;99.90;;;;;;5063996;28;20484;-86
2022/02/08 12:34:21;;;;;;;7.73;3.13;;;11.30;99.90;;;;;;5076191;28;20441;-85
2022/02/08 12:54:13;;;;;;;7.53;2.33;;;11.30;99.90;;;;;;5075546;28;20487;-86
2022/02/08 12:56:49;;;;;;;5.13;2.20;;;11.30;99.90;;;;;;5055915;28;20459;-85
2022/02/08 12:59:38;;;;;;;10.33;2.63;;;11.30;99.90;;;;;;5075595;28;20454;-85
2022/02/08 13:02:23;;;;;;;5.33;2.40;;;11.30;99.90;;;;;;5075277;28;20459;-86
2022/02/08 13:05:09;;;;;;;6.57;2.57;;;11.30;99.90;;;;;;5075686;28;20473;-86
2022/02/08 14:03:53;;;;;;;6.60;2.20;;;11.50;99.90;;;;;;5049081;28;20432;-87
2022/02/08 14:06:23;;;;;;;5.30;2.03;;;11.50;99.90;;;;;;5058652;28;20478;-87
2022/02/08 14:09:10;;;;;;;5.00;1.90;;;11.50;99.90;;;;;;5073950;28;20431;-86
2022/02/08 14:23:08;;;;;;;5.73;1.90;;;11.30;99.90;;;;;;5075201;28;20484;-86
2022/02/08 14:26:00;;;;;;;6.87;2.43;;;11.30;99.90;;;;;;5074936;28;20572;-86
2022/02/08 14:31:35;;;;;;;5.63;2.80;;;11.20;99.90;;;;;;5078034;28;20449;-85
2022/02/08 14:34:28;;;;;;;5.90;1.77;;;11.20;99.90;;;;;;5075965;28;20478;-87
2022/02/08 14:37:18;;;;;;;3.43;1.33;;;11.20;99.90;;;;;;5078152;28;20816;-86
2022/02/08 15:08:01;;;;;;;4.57;2.43;;;11.00;99.90;;;;;;5079922;28;20862;-85
2022/02/08 15:10:37;;;;;;;5.00;1.87;;;11.00;99.90;;;;;;5079908;28;20458;-86
2022/02/08 15:13:05;;;;;;;5.00;1.53;;;11.00;99.90;;;;;;5086973;28;20460;-83
2022/02/08 15:15:43;;;;;;;8.20;2.60;;;10.90;99.90;;;;;;5085009;28;20472;-82
2022/02/08 15:18:12;;;;;;;7.87;2.27;;;11.00;99.90;;;;;;5083258;28;20481;-84
2022/02/08 15:20:39;;;;;;;7.70;1.50;;;11.00;99.90;;;;;;5079995;28;20460;-85
2022/02/08 15:23:10;;;;;;;4.33;1.30;;;11.00;99.90;;;;;;5081074;28;20954;-85
2022/02/08 15:25:37;;;;;;;4.20;1.83;;;11.00;99.90;;;;;;5081241;28;20478;-85
2022/02/08 15:28:05;;;;;;;4.90;1.43;;;11.00;99.90;;;;;;5082232;28;20455;-85
2022/02/08 15:30:36;;;;;;;5.30;1.97;;;11.00;99.90;;;;;;5081821;28;20468;-86
2022/02/08 15:33:05;;;;;;;2.67;1.60;;;11.00;99.90;;;;;;5080313;28;20450;-86
2022/02/08 15:35:32;;;;;;;7.33;2.00;;;11.00;99.90;;;;;;5080185;28;20474;-86
2022/02/08 15:37:59;;;;;;;3.00;1.43;;;11.00;99.90;;;;;;5079817;28;20453;-86
2022/02/08 15:40:26;;;;;;;2.97;1.90;;;11.00;99.90;;;;;;5079343;28;20459;-86
2022/02/08 15:42:53;;;;;;;6.30;1.93;;;10.90;99.90;;;;;;5080523;28;20453;-86
2022/02/08 15:45:24;;;;;;;5.83;2.60;;;11.00;99.90;;;;;;5079250;28;20473;-84
2022/02/08 15:47:55;;;;;;;5.30;2.50;;;10.90;99.90;;;;;;5078844;28;20998;-84
2022/02/08 15:50:28;;;;;;;7.53;2.37;;;10.90;99.90;;;;;;5080030;28;20448;-85
2022/02/08 15:53:11;;;;;;;6.20;2.20;;;10.90;99.90;;;;;;5080319;28;20532;-87
2022/02/08 15:55:47;;;;;;;5.97;1.83;;;10.80;99.90;;;;;;5083186;28;20540;-89
2022/02/08 15:58:25;;;;;;;4.73;2.10;;;10.80;99.90;;;;;;5065582;28;20455;-86
2022/02/08 16:01:08;;;;;;;4.63;2.00;;;10.90;99.90;;;;;;5077883;28;20915;-85
2022/02/08 16:09:07;;;;;;;6.97;1.90;;;10.90;99.90;;;;;;5085658;28;20468;-86
2022/02/08 16:11:49;;;;;;;6.50;2.50;;;10.80;99.90;;;;;;5088331;28;20458;-87
2022/02/08 16:14:27;;;;;;;5.23;2.27;;;10.90;99.90;;;;;;5063394;28;20470;-85
2022/02/08 16:17:04;;;;;;;7.10;2.17;;;10.90;99.90;;;;;;5059489;28;20465;-83
2022/02/08 16:19:46;;;;;;;7.10;2.30;;;10.80;99.90;;;;;;5060534;28;20448;-83
2022/02/08 16:25:09;;;;;;;6.60;1.83;;;10.90;99.90;;;;;;5078181;28;20541;-85
2022/02/08 16:27:48;;;;;;;3.57;1.97;;;11.00;99.90;;;;;;5078804;28;20509;-85
2022/02/08 16:50:30;;;;;;;7.93;1.90;;;10.90;99.90;;;;;;5033764;28;20984;-85
2022/02/08 16:53:19;;;;;;;6.03;1.97;;;10.90;99.90;;;;;;5076945;28;20529;-84
2022/02/08 16:56:04;;;;;;;3.23;1.80;;;10.80;99.90;;;;;;5078849;28;20493;-83
2022/02/08 16:58:41;;;;;;;5.83;2.23;;;10.80;99.90;;;;;;5077017;28;20510;-84
2022/02/08 17:01:14;;;;;;;8.60;3.43;;;10.80;99.90;;;;;;5078546;28;20456;-84
2022/02/08 17:03:47;;;;;;;5.17;2.23;;;10.80;99.90;;;;;;5077319;28;20437;-83
2022/02/08 17:06:16;;;;;;;4.70;1.93;;;10.80;99.90;;;;;;5062100;28;20498;-85
2022/02/08 17:08:45;;;;;;;4.70;2.70;;;10.80;99.90;;;;;;5077559;28;20457;-85
2022/02/08 17:11:18;;;;;;;4.73;2.37;;;10.70;99.90;;;;;;5057033;28;20498;-86
2022/02/08 17:16:36;;;;;;;6.00;2.03;;;10.70;99.90;;;;;;5075315;28;20529;-85
2022/02/08 17:47:12;;;;;;;7.87;3.20;;;10.50;99.90;;;;;;5029867;28;20525;-84
2022/02/08 17:49:40;;;;;;;4.70;2.83;;;10.60;99.90;;;;;;5028505;28;20486;-83
2022/02/08 17:52:07;;;;;;;7.23;3.60;;;10.60;99.90;;;;;;5031573;28;20535;-83
2022/02/08 17:54:34;;;;;;;7.43;3.80;;;10.50;99.90;;;;;;5028039;28;20848;-83
2022/02/08 17:57:01;;;;;;;5.67;3.30;;;10.50;99.90;;;;;;5030006;28;20945;-83
2022/02/08 17:59:29;;;;;;;6.03;3.40;;;10.50;99.90;;;;;;5028707;28;20454;-83
2022/02/08 18:01:56;;;;;;;5.20;2.60;;;10.50;99.90;;;;;;5029828;28;20538;-83
2022/02/08 18:04:23;;;;;;;6.57;3.03;;;10.50;99.90;;;;;;5033184;28;20479;-84
2022/02/08 18:06:50;;;;;;;3.87;2.13;;;10.50;99.90;;;;;;5034037;28;20486;-83
2022/02/08 18:09:19;;;;;;;4.20;2.60;;;10.50;99.90;;;;;;5030923;28;20453;-82
2022/02/08 18:11:46;;;;;;;2.90;2.10;;;10.50;99.90;;;;;;5028516;28;20956;-82
2022/02/08 18:14:18;;;;;;;2.90;2.30;;;10.50;99.90;;;;;;5028532;28;20483;-82
2022/02/08 18:16:51;;;;;;;7.57;2.60;;;10.50;99.90;;;;;;5032222;28;20464;-82